sensor_id;sensor_type;location;lat;lon;timestamp;P1;durP1;ratioP1;P2;durP2;ratioP2
47555;SDS011;33291;46.222;26.460;2023-12-20T00:00:13;2.08;;;0.70;;
47555;SDS011;33291;46.222;26.460;2023-12-20T00:02:39;3.00;;;0.50;;
47555;SDS011;33291;46.222;26.460;2023-12-20T00:05:04;0.77;;;0.40;;
47555;SDS011;33291;46.222;26.460;2023-12-20T00:07:30;1.42;;;0.60;;
47555;SDS011;33291;46.222;26.460;2023-12-20T00:09:56;1.40;;;0.40;;
47555;SDS011;33291;46.222;26.460;2023-12-20T00:12:21;0.82;;;0.43;;
47555;SDS011;33291;46.222;26.460;2023-12-20T00:14:47;0.57;;;0.40;;
47555;SDS011;33291;46.222;26.460;2023-12-20T00:17:12;1.25;;;0.40;;
47555;SDS011;33291;46.222;26.460;2023-12-20T00:19:38;1.58;;;0.30;;
47555;SDS011;33291;46.222;26.460;2023-12-20T00:22:03;3.63;;;1.25;;
47555;SDS011;33291;46.222;26.460;2023-12-20T00:24:29;1.08;;;0.40;;
47555;SDS011;33291;46.222;26.460;2023-12-20T00:26:54;0.98;;;0.50;;
47555;SDS011;33291;46.222;26.460;2023-12-20T00:29:20;2.22;;;1.00;;
47555;SDS011;33291;46.222;26.460;2023-12-20T00:31:45;1.67;;;0.70;;
47555;SDS011;33291;46.222;26.460;2023-12-20T00:34:11;4.82;;;0.40;;
47555;SDS011;33291;46.222;26.460;2023-12-20T00:36:36;2.60;;;1.17;;
47555;SDS011;33291;46.222;26.460;2023-12-20T00:39:02;2.28;;;0.68;;
47555;SDS011;33291;46.222;26.460;2023-12-20T00:41:28;0.63;;;0.45;;
47555;SDS011;33291;46.222;26.460;2023-12-20T00:43:53;1.25;;;0.40;;
47555;SDS011;33291;46.222;26.460;2023-12-20T00:46:19;0.95;;;0.30;;
47555;SDS011;33291;46.222;26.460;2023-12-20T00:48:44;1.63;;;0.70;;
47555;SDS011;33291;46.222;26.460;2023-12-20T00:51:11;1.08;;;0.40;;
47555;SDS011;33291;46.222;26.460;2023-12-20T00:53:36;1.40;;;0.73;;
47555;SDS011;33291;46.222;26.460;2023-12-20T00:56:02;4.30;;;1.77;;
47555;SDS011;33291;46.222;26.460;2023-12-20T00:58:27;4.78;;;0.40;;
47555;SDS011;33291;46.222;26.460;2023-12-20T01:00:53;0.50;;;0.38;;
47555;SDS011;33291;46.222;26.460;2023-12-20T01:03:19;0.60;;;0.25;;
47555;SDS011;33291;46.222;26.460;2023-12-20T01:05:44;1.05;;;0.20;;
47555;SDS011;33291;46.222;26.460;2023-12-20T01:08:10;0.55;;;0.30;;
47555;SDS011;33291;46.222;26.460;2023-12-20T01:10:35;0.93;;;0.60;;
47555;SDS011;33291;46.222;26.460;2023-12-20T01:13:01;0.43;;;0.20;;
47555;SDS011;33291;46.222;26.460;2023-12-20T01:15:26;0.50;;;0.30;;
47555;SDS011;33291;46.222;26.460;2023-12-20T01:17:52;0.60;;;0.20;;
47555;SDS011;33291;46.222;26.460;2023-12-20T01:20:17;0.22;;;0.10;;
47555;SDS011;33291;46.222;26.460;2023-12-20T01:22:45;0.95;;;0.40;;
47555;SDS011;33291;46.222;26.460;2023-12-20T01:25:11;1.67;;;0.32;;
47555;SDS011;33291;46.222;26.460;2023-12-20T01:27:37;0.68;;;0.22;;
47555;SDS011;33291;46.222;26.460;2023-12-20T01:30:03;0.75;;;0.17;;
47555;SDS011;33291;46.222;26.460;2023-12-20T01:32:29;0.57;;;0.13;;
47555;SDS011;33291;46.222;26.460;2023-12-20T01:34:55;1.95;;;0.30;;
47555;SDS011;33291;46.222;26.460;2023-12-20T01:37:20;0.60;;;0.10;;
47555;SDS011;33291;46.222;26.460;2023-12-20T01:39:46;0.60;;;0.30;;
47555;SDS011;33291;46.222;26.460;2023-12-20T01:42:11;0.80;;;0.40;;
47555;SDS011;33291;46.222;26.460;2023-12-20T01:44:37;0.10;;;0.10;;
47555;SDS011;33291;46.222;26.460;2023-12-20T01:47:02;0.47;;;0.20;;
47555;SDS011;33291;46.222;26.460;2023-12-20T01:49:28;2.45;;;1.23;;
47555;SDS011;33291;46.222;26.460;2023-12-20T01:51:54;0.68;;;0.20;;
47555;SDS011;33291;46.222;26.460;2023-12-20T01:54:20;0.63;;;0.40;;
47555;SDS011;33291;46.222;26.460;2023-12-20T01:56:46;6.32;;;2.70;;
47555;SDS011;33291;46.222;26.460;2023-12-20T01:59:12;2.15;;;0.70;;
47555;SDS011;33291;46.222;26.460;2023-12-20T02:01:37;0.40;;;0.10;;
47555;SDS011;33291;46.222;26.460;2023-12-20T02:04:03;1.63;;;0.70;;
47555;SDS011;33291;46.222;26.460;2023-12-20T02:06:29;1.13;;;0.43;;
47555;SDS011;33291;46.222;26.460;2023-12-20T02:08:58;0.88;;;0.30;;
47555;SDS011;33291;46.222;26.460;2023-12-20T02:11:24;1.05;;;0.40;;
47555;SDS011;33291;46.222;26.460;2023-12-20T02:13:50;1.15;;;0.30;;
47555;SDS011;33291;46.222;26.460;2023-12-20T02:16:16;0.70;;;0.25;;
47555;SDS011;33291;46.222;26.460;2023-12-20T02:18:42;0.52;;;0.30;;
47555;SDS011;33291;46.222;26.460;2023-12-20T02:21:09;0.65;;;0.60;;
47555;SDS011;33291;46.222;26.460;2023-12-20T02:23:35;0.80;;;0.17;;
47555;SDS011;33291;46.222;26.460;2023-12-20T02:26:00;0.80;;;0.20;;
47555;SDS011;33291;46.222;26.460;2023-12-20T02:28:26;1.08;;;0.20;;
47555;SDS011;33291;46.222;26.460;2023-12-20T02:30:52;1.77;;;0.77;;
47555;SDS011;33291;46.222;26.460;2023-12-20T02:33:18;0.98;;;0.20;;
47555;SDS011;33291;46.222;26.460;2023-12-20T02:35:43;1.35;;;1.25;;
47555;SDS011;33291;46.222;26.460;2023-12-20T02:38:09;2.50;;;1.15;;
47555;SDS011;33291;46.222;26.460;2023-12-20T02:40:34;1.05;;;0.47;;
47555;SDS011;33291;46.222;26.460;2023-12-20T02:43:00;0.93;;;0.40;;
47555;SDS011;33291;46.222;26.460;2023-12-20T02:45:26;2.67;;;0.40;;
47555;SDS011;33291;46.222;26.460;2023-12-20T02:47:52;0.90;;;0.35;;
47555;SDS011;33291;46.222;26.460;2023-12-20T02:50:17;1.45;;;0.75;;
47555;SDS011;33291;46.222;26.460;2023-12-20T02:52:44;0.40;;;0.20;;
47555;SDS011;33291;46.222;26.460;2023-12-20T02:55:10;1.27;;;0.20;;
47555;SDS011;33291;46.222;26.460;2023-12-20T02:57:35;0.30;;;0.20;;
47555;SDS011;33291;46.222;26.460;2023-12-20T03:00:01;0.28;;;0.28;;
47555;SDS011;33291;46.222;26.460;2023-12-20T03:02:27;0.47;;;0.10;;
47555;SDS011;33291;46.222;26.460;2023-12-20T03:04:52;0.75;;;0.20;;
47555;SDS011;33291;46.222;26.460;2023-12-20T03:07:19;0.38;;;0.20;;
47555;SDS011;33291;46.222;26.460;2023-12-20T03:09:45;0.28;;;0.15;;
47555;SDS011;33291;46.222;26.460;2023-12-20T03:12:10;0.65;;;0.30;;
47555;SDS011;33291;46.222;26.460;2023-12-20T03:14:36;2.05;;;0.55;;
47555;SDS011;33291;46.222;26.460;2023-12-20T03:17:01;0.20;;;0.13;;
47555;SDS011;33291;46.222;26.460;2023-12-20T03:19:27;0.85;;;0.20;;
47555;SDS011;33291;46.222;26.460;2023-12-20T03:21:52;15.07;;;6.05;;
47555;SDS011;33291;46.222;26.460;2023-12-20T03:24:18;0.90;;;0.43;;
47555;SDS011;33291;46.222;26.460;2023-12-20T03:26:44;0.77;;;0.17;;
47555;SDS011;33291;46.222;26.460;2023-12-20T03:29:09;2.55;;;0.10;;
47555;SDS011;33291;46.222;26.460;2023-12-20T03:31:35;1.10;;;0.50;;
47555;SDS011;33291;46.222;26.460;2023-12-20T03:34:00;1.80;;;1.20;;
47555;SDS011;33291;46.222;26.460;2023-12-20T03:36:26;3.88;;;2.78;;
47555;SDS011;33291;46.222;26.460;2023-12-20T03:38:51;3.45;;;2.80;;
47555;SDS011;33291;46.222;26.460;2023-12-20T03:41:17;2.13;;;1.52;;
47555;SDS011;33291;46.222;26.460;2023-12-20T03:43:42;0.65;;;0.20;;
47555;SDS011;33291;46.222;26.460;2023-12-20T03:46:08;0.10;;;0.10;;
47555;SDS011;33291;46.222;26.460;2023-12-20T03:48:34;2.28;;;0.17;;
47555;SDS011;33291;46.222;26.460;2023-12-20T03:50:59;0.40;;;0.15;;
47555;SDS011;33291;46.222;26.460;2023-12-20T03:53:25;2.03;;;0.38;;
47555;SDS011;33291;46.222;26.460;2023-12-20T03:55:50;0.20;;;0.10;;
47555;SDS011;33291;46.222;26.460;2023-12-20T03:58:16;0.93;;;0.35;;
47555;SDS011;33291;46.222;26.460;2023-12-20T04:00:41;0.40;;;0.35;;
47555;SDS011;33291;46.222;26.460;2023-12-20T04:03:07;0.50;;;0.22;;
47555;SDS011;33291;46.222;26.460;2023-12-20T04:05:32;1.02;;;0.50;;
47555;SDS011;33291;46.222;26.460;2023-12-20T04:07:59;1.98;;;0.95;;
47555;SDS011;33291;46.222;26.460;2023-12-20T04:10:25;2.67;;;0.82;;
47555;SDS011;33291;46.222;26.460;2023-12-20T04:12:50;0.30;;;0.10;;
47555;SDS011;33291;46.222;26.460;2023-12-20T04:15:16;1.30;;;0.30;;
47555;SDS011;33291;46.222;26.460;2023-12-20T04:17:41;1.30;;;0.80;;
47555;SDS011;33291;46.222;26.460;2023-12-20T04:20:07;1.05;;;0.32;;
47555;SDS011;33291;46.222;26.460;2023-12-20T04:22:33;0.30;;;0.20;;
47555;SDS011;33291;46.222;26.460;2023-12-20T04:24:58;0.50;;;0.20;;
47555;SDS011;33291;46.222;26.460;2023-12-20T04:27:24;0.10;;;0.10;;
47555;SDS011;33291;46.222;26.460;2023-12-20T04:29:49;0.30;;;0.10;;
47555;SDS011;33291;46.222;26.460;2023-12-20T04:32:15;0.68;;;0.20;;
47555;SDS011;33291;46.222;26.460;2023-12-20T04:34:40;0.90;;;0.30;;
47555;SDS011;33291;46.222;26.460;2023-12-20T04:37:06;0.32;;;0.20;;
47555;SDS011;33291;46.222;26.460;2023-12-20T04:39:31;0.30;;;0.10;;
47555;SDS011;33291;46.222;26.460;2023-12-20T04:41:58;1.27;;;0.20;;
47555;SDS011;33291;46.222;26.460;2023-12-20T04:44:23;0.38;;;0.22;;
47555;SDS011;33291;46.222;26.460;2023-12-20T04:46:49;1.10;;;0.20;;
47555;SDS011;33291;46.222;26.460;2023-12-20T04:49:14;0.80;;;0.20;;
47555;SDS011;33291;46.222;26.460;2023-12-20T04:51:40;1.42;;;0.63;;
47555;SDS011;33291;46.222;26.460;2023-12-20T04:54:05;0.47;;;0.20;;
47555;SDS011;33291;46.222;26.460;2023-12-20T04:56:31;0.10;;;0.10;;
47555;SDS011;33291;46.222;26.460;2023-12-20T04:58:56;0.13;;;0.10;;
47555;SDS011;33291;46.222;26.460;2023-12-20T05:01:22;0.20;;;0.13;;
47555;SDS011;33291;46.222;26.460;2023-12-20T05:03:47;0.45;;;0.10;;
47555;SDS011;33291;46.222;26.460;2023-12-20T05:06:13;0.25;;;0.10;;
47555;SDS011;33291;46.222;26.460;2023-12-20T05:08:40;43.83;;;17.92;;
47555;SDS011;33291;46.222;26.460;2023-12-20T05:11:05;2.10;;;0.85;;
47555;SDS011;33291;46.222;26.460;2023-12-20T05:13:31;0.68;;;0.43;;
47555;SDS011;33291;46.222;26.460;2023-12-20T05:15:57;66.90;;;29.70;;
47555;SDS011;33291;46.222;26.460;2023-12-20T05:18:22;11.68;;;4.90;;
47555;SDS011;33291;46.222;26.460;2023-12-20T05:20:48;2.22;;;0.85;;
47555;SDS011;33291;46.222;26.460;2023-12-20T05:23:15;0.30;;;0.15;;
47555;SDS011;33291;46.222;26.460;2023-12-20T05:25:40;1.05;;;0.80;;
47555;SDS011;33291;46.222;26.460;2023-12-20T05:28:06;4.32;;;3.00;;
47555;SDS011;33291;46.222;26.460;2023-12-20T05:30:31;4.95;;;4.20;;
47555;SDS011;33291;46.222;26.460;2023-12-20T05:32:57;1.45;;;1.08;;
47555;SDS011;33291;46.222;26.460;2023-12-20T05:35:22;0.32;;;0.10;;
47555;SDS011;33291;46.222;26.460;2023-12-20T05:37:48;0.50;;;0.28;;
47555;SDS011;33291;46.222;26.460;2023-12-20T05:40:14;0.43;;;0.10;;
47555;SDS011;33291;46.222;26.460;2023-12-20T05:42:40;0.45;;;0.20;;
47555;SDS011;33291;46.222;26.460;2023-12-20T05:45:05;6.63;;;3.63;;
47555;SDS011;33291;46.222;26.460;2023-12-20T05:47:31;12.82;;;3.92;;
47555;SDS011;33291;46.222;26.460;2023-12-20T05:49:57;4.20;;;1.40;;
47555;SDS011;33291;46.222;26.460;2023-12-20T05:52:23;2.70;;;0.45;;
47555;SDS011;33291;46.222;26.460;2023-12-20T05:54:48;2.90;;;1.20;;
47555;SDS011;33291;46.222;26.460;2023-12-20T05:57:14;0.68;;;0.20;;
47555;SDS011;33291;46.222;26.460;2023-12-20T05:59:39;2.65;;;1.20;;
47555;SDS011;33291;46.222;26.460;2023-12-20T06:02:05;10.38;;;4.57;;
47555;SDS011;33291;46.222;26.460;2023-12-20T06:04:31;11.07;;;4.30;;
47555;SDS011;33291;46.222;26.460;2023-12-20T06:06:57;2.42;;;1.25;;
47555;SDS011;33291;46.222;26.460;2023-12-20T06:09:22;0.40;;;0.25;;
47555;SDS011;33291;46.222;26.460;2023-12-20T06:11:49;0.20;;;0.10;;
47555;SDS011;33291;46.222;26.460;2023-12-20T06:14:14;1.02;;;0.32;;
47555;SDS011;33291;46.222;26.460;2023-12-20T06:16:40;0.57;;;0.20;;
47555;SDS011;33291;46.222;26.460;2023-12-20T06:19:05;10.13;;;4.88;;
47555;SDS011;33291;46.222;26.460;2023-12-20T06:21:31;10.48;;;3.25;;
47555;SDS011;33291;46.222;26.460;2023-12-20T06:23:58;20.45;;;6.55;;
47555;SDS011;33291;46.222;26.460;2023-12-20T06:26:24;2.05;;;0.75;;
47555;SDS011;33291;46.222;26.460;2023-12-20T06:28:50;8.40;;;4.28;;
47555;SDS011;33291;46.222;26.460;2023-12-20T06:31:15;2.60;;;1.67;;
47555;SDS011;33291;46.222;26.460;2023-12-20T06:33:42;33.58;;;15.07;;
47555;SDS011;33291;46.222;26.460;2023-12-20T06:36:10;19.48;;;6.35;;
47555;SDS011;33291;46.222;26.460;2023-12-20T06:38:37;4.20;;;2.03;;
47555;SDS011;33291;46.222;26.460;2023-12-20T06:41:02;12.73;;;5.97;;
47555;SDS011;33291;46.222;26.460;2023-12-20T06:43:28;5.72;;;2.75;;
47555;SDS011;33291;46.222;26.460;2023-12-20T06:45:54;2.47;;;1.20;;
47555;SDS011;33291;46.222;26.460;2023-12-20T06:48:19;0.50;;;0.13;;
47555;SDS011;33291;46.222;26.460;2023-12-20T06:50:45;0.55;;;0.40;;
47555;SDS011;33291;46.222;26.460;2023-12-20T06:53:11;15.98;;;7.68;;
47555;SDS011;33291;46.222;26.460;2023-12-20T06:55:37;28.60;;;13.25;;
47555;SDS011;33291;46.222;26.460;2023-12-20T06:58:03;3.78;;;2.10;;
47555;SDS011;33291;46.222;26.460;2023-12-20T07:00:29;2.72;;;0.90;;
47555;SDS011;33291;46.222;26.460;2023-12-20T07:02:55;0.10;;;0.10;;
47555;SDS011;33291;46.222;26.460;2023-12-20T07:05:21;14.77;;;5.80;;
47555;SDS011;33291;46.222;26.460;2023-12-20T07:07:47;10.70;;;4.38;;
47555;SDS011;33291;46.222;26.460;2023-12-20T07:10:13;16.38;;;4.75;;
47555;SDS011;33291;46.222;26.460;2023-12-20T07:12:39;52.75;;;23.90;;
47555;SDS011;33291;46.222;26.460;2023-12-20T07:15:04;161.98;;;76.35;;
47555;SDS011;33291;46.222;26.460;2023-12-20T07:17:32;8.55;;;4.05;;
47555;SDS011;33291;46.222;26.460;2023-12-20T07:19:58;12.15;;;6.25;;
47555;SDS011;33291;46.222;26.460;2023-12-20T07:22:24;6.55;;;3.10;;
47555;SDS011;33291;46.222;26.460;2023-12-20T07:24:49;1.17;;;0.40;;
47555;SDS011;33291;46.222;26.460;2023-12-20T07:27:17;2.92;;;0.95;;
47555;SDS011;33291;46.222;26.460;2023-12-20T07:29:42;13.20;;;6.63;;
47555;SDS011;33291;46.222;26.460;2023-12-20T07:32:08;7.78;;;2.05;;
47555;SDS011;33291;46.222;26.460;2023-12-20T07:34:34;23.08;;;9.10;;
47555;SDS011;33291;46.222;26.460;2023-12-20T07:36:59;14.93;;;8.05;;
47555;SDS011;33291;46.222;26.460;2023-12-20T07:39:25;11.05;;;5.85;;
47555;SDS011;33291;46.222;26.460;2023-12-20T07:41:50;10.70;;;5.20;;
47555;SDS011;33291;46.222;26.460;2023-12-20T07:44:16;3.72;;;2.22;;
47555;SDS011;33291;46.222;26.460;2023-12-20T07:46:41;9.77;;;5.43;;
47555;SDS011;33291;46.222;26.460;2023-12-20T07:49:07;9.63;;;5.40;;
47555;SDS011;33291;46.222;26.460;2023-12-20T07:51:33;16.35;;;8.10;;
47555;SDS011;33291;46.222;26.460;2023-12-20T07:54:01;34.22;;;16.98;;
47555;SDS011;33291;46.222;26.460;2023-12-20T07:56:28;24.35;;;11.88;;
47555;SDS011;33291;46.222;26.460;2023-12-20T07:58:54;65.03;;;30.67;;
47555;SDS011;33291;46.222;26.460;2023-12-20T08:01:19;78.43;;;35.58;;
47555;SDS011;33291;46.222;26.460;2023-12-20T08:03:45;67.68;;;29.55;;
47555;SDS011;33291;46.222;26.460;2023-12-20T08:06:11;59.90;;;27.48;;
47555;SDS011;33291;46.222;26.460;2023-12-20T08:08:37;46.15;;;25.02;;
47555;SDS011;33291;46.222;26.460;2023-12-20T08:11:02;54.28;;;27.05;;
47555;SDS011;33291;46.222;26.460;2023-12-20T08:13:28;29.33;;;12.70;;
47555;SDS011;33291;46.222;26.460;2023-12-20T08:15:54;14.18;;;7.80;;
47555;SDS011;33291;46.222;26.460;2023-12-20T08:18:21;11.98;;;6.07;;
47555;SDS011;33291;46.222;26.460;2023-12-20T08:20:47;12.00;;;6.35;;
47555;SDS011;33291;46.222;26.460;2023-12-20T08:23:13;20.25;;;9.35;;
47555;SDS011;33291;46.222;26.460;2023-12-20T08:25:39;11.75;;;6.88;;
47555;SDS011;33291;46.222;26.460;2023-12-20T08:28:04;17.45;;;8.98;;
47555;SDS011;33291;46.222;26.460;2023-12-20T08:30:30;8.10;;;4.47;;
47555;SDS011;33291;46.222;26.460;2023-12-20T08:32:56;15.10;;;8.15;;
47555;SDS011;33291;46.222;26.460;2023-12-20T08:35:25;11.82;;;6.90;;
47555;SDS011;33291;46.222;26.460;2023-12-20T08:37:50;10.10;;;5.53;;
47555;SDS011;33291;46.222;26.460;2023-12-20T08:40:16;16.67;;;9.57;;
47555;SDS011;33291;46.222;26.460;2023-12-20T08:42:41;5.20;;;3.10;;
47555;SDS011;33291;46.222;26.460;2023-12-20T08:45:07;12.55;;;6.72;;
47555;SDS011;33291;46.222;26.460;2023-12-20T08:47:33;32.15;;;15.00;;
47555;SDS011;33291;46.222;26.460;2023-12-20T08:49:58;31.67;;;15.35;;
47555;SDS011;33291;46.222;26.460;2023-12-20T08:52:25;19.20;;;8.82;;
47555;SDS011;33291;46.222;26.460;2023-12-20T08:54:52;31.88;;;13.98;;
47555;SDS011;33291;46.222;26.460;2023-12-20T08:57:21;12.80;;;6.53;;
47555;SDS011;33291;46.222;26.460;2023-12-20T08:59:48;17.63;;;6.97;;
47555;SDS011;33291;46.222;26.460;2023-12-20T09:02:14;17.50;;;7.57;;
47555;SDS011;33291;46.222;26.460;2023-12-20T09:04:40;29.02;;;11.68;;
47555;SDS011;33291;46.222;26.460;2023-12-20T09:07:06;20.90;;;9.20;;
47555;SDS011;33291;46.222;26.460;2023-12-20T09:09:32;11.32;;;5.10;;
47555;SDS011;33291;46.222;26.460;2023-12-20T09:11:59;28.00;;;11.25;;
47555;SDS011;33291;46.222;26.460;2023-12-20T09:14:24;28.08;;;14.15;;
47555;SDS011;33291;46.222;26.460;2023-12-20T09:16:50;48.25;;;19.15;;
47555;SDS011;33291;46.222;26.460;2023-12-20T09:19:19;19.05;;;9.18;;
47555;SDS011;33291;46.222;26.460;2023-12-20T09:21:44;8.38;;;4.10;;
47555;SDS011;33291;46.222;26.460;2023-12-20T09:24:10;27.48;;;11.27;;
47555;SDS011;33291;46.222;26.460;2023-12-20T09:26:36;30.17;;;13.50;;
47555;SDS011;33291;46.222;26.460;2023-12-20T09:29:01;20.15;;;9.60;;
47555;SDS011;33291;46.222;26.460;2023-12-20T09:31:27;20.42;;;9.73;;
47555;SDS011;33291;46.222;26.460;2023-12-20T09:33:52;28.73;;;12.90;;
47555;SDS011;33291;46.222;26.460;2023-12-20T09:36:18;29.77;;;14.32;;
47555;SDS011;33291;46.222;26.460;2023-12-20T09:38:43;16.02;;;7.35;;
47555;SDS011;33291;46.222;26.460;2023-12-20T09:41:09;10.38;;;5.65;;
47555;SDS011;33291;46.222;26.460;2023-12-20T09:43:37;9.05;;;3.72;;
47555;SDS011;33291;46.222;26.460;2023-12-20T09:46:05;10.38;;;5.03;;
47555;SDS011;33291;46.222;26.460;2023-12-20T09:48:32;6.00;;;3.33;;
47555;SDS011;33291;46.222;26.460;2023-12-20T09:50:58;2.22;;;1.38;;
47555;SDS011;33291;46.222;26.460;2023-12-20T09:53:24;13.48;;;7.30;;
47555;SDS011;33291;46.222;26.460;2023-12-20T09:55:55;29.33;;;16.45;;
47555;SDS011;33291;46.222;26.460;2023-12-20T09:58:25;8.50;;;4.35;;
47555;SDS011;33291;46.222;26.460;2023-12-20T10:00:50;10.93;;;5.72;;
47555;SDS011;33291;46.222;26.460;2023-12-20T10:03:18;17.55;;;8.48;;
47555;SDS011;33291;46.222;26.460;2023-12-20T10:05:49;15.65;;;7.75;;
47555;SDS011;33291;46.222;26.460;2023-12-20T10:08:18;48.00;;;24.50;;
47555;SDS011;33291;46.222;26.460;2023-12-20T10:10:47;22.00;;;11.27;;
47555;SDS011;33291;46.222;26.460;2023-12-20T10:13:12;35.70;;;17.33;;
47555;SDS011;33291;46.222;26.460;2023-12-20T10:15:38;36.67;;;14.90;;
47555;SDS011;33291;46.222;26.460;2023-12-20T10:18:04;30.00;;;14.32;;
47555;SDS011;33291;46.222;26.460;2023-12-20T10:20:30;29.63;;;13.25;;
47555;SDS011;33291;46.222;26.460;2023-12-20T10:22:57;35.45;;;16.45;;
47555;SDS011;33291;46.222;26.460;2023-12-20T10:25:24;29.35;;;14.43;;
47555;SDS011;33291;46.222;26.460;2023-12-20T10:27:50;24.23;;;11.40;;
47555;SDS011;33291;46.222;26.460;2023-12-20T10:30:33;23.58;;;13.20;;
47555;SDS011;33291;46.222;26.460;2023-12-20T10:32:59;46.33;;;21.83;;
47555;SDS011;33291;46.222;26.460;2023-12-20T10:35:24;50.13;;;23.13;;
47555;SDS011;33291;46.222;26.460;2023-12-20T10:37:51;59.40;;;25.35;;
47555;SDS011;33291;46.222;26.460;2023-12-20T10:40:21;38.75;;;18.63;;
47555;SDS011;33291;46.222;26.460;2023-12-20T10:42:48;63.60;;;28.63;;
47555;SDS011;33291;46.222;26.460;2023-12-20T10:45:15;71.43;;;29.58;;
47555;SDS011;33291;46.222;26.460;2023-12-20T10:47:43;64.20;;;26.98;;
47555;SDS011;33291;46.222;26.460;2023-12-20T10:50:12;65.15;;;28.08;;
47555;SDS011;33291;46.222;26.460;2023-12-20T10:52:37;42.50;;;19.98;;
47555;SDS011;33291;46.222;26.460;2023-12-20T10:55:05;49.45;;;21.02;;
47555;SDS011;33291;46.222;26.460;2023-12-20T10:57:31;47.72;;;19.73;;
47555;SDS011;33291;46.222;26.460;2023-12-20T10:59:59;24.10;;;9.95;;
47555;SDS011;33291;46.222;26.460;2023-12-20T11:02:29;73.90;;;31.40;;
47555;SDS011;33291;46.222;26.460;2023-12-20T11:05:04;63.20;;;29.30;;
47555;SDS011;33291;46.222;26.460;2023-12-20T11:07:36;48.83;;;22.15;;
47555;SDS011;33291;46.222;26.460;2023-12-20T11:10:13;44.90;;;22.65;;
47555;SDS011;33291;46.222;26.460;2023-12-20T11:15:34;48.33;;;22.38;;
47555;SDS011;33291;46.222;26.460;2023-12-20T11:18:01;38.50;;;17.80;;
47555;SDS011;33291;46.222;26.460;2023-12-20T11:20:38;66.43;;;34.17;;
47555;SDS011;33291;46.222;26.460;2023-12-20T11:23:05;12.88;;;6.88;;
47555;SDS011;33291;46.222;26.460;2023-12-20T11:28:21;26.45;;;13.43;;
47555;SDS011;33291;46.222;26.460;2023-12-20T11:30:49;19.40;;;10.68;;
47555;SDS011;33291;46.222;26.460;2023-12-20T11:33:16;50.78;;;24.38;;
47555;SDS011;33291;46.222;26.460;2023-12-20T11:35:46;56.47;;;27.67;;
47555;SDS011;33291;46.222;26.460;2023-12-20T11:38:12;52.10;;;25.35;;
47555;SDS011;33291;46.222;26.460;2023-12-20T11:40:39;55.33;;;26.13;;
47555;SDS011;33291;46.222;26.460;2023-12-20T11:43:07;56.80;;;24.27;;
47555;SDS011;33291;46.222;26.460;2023-12-20T11:45:33;36.20;;;17.35;;
47555;SDS011;33291;46.222;26.460;2023-12-20T11:48:00;8.68;;;4.28;;
47555;SDS011;33291;46.222;26.460;2023-12-20T11:50:27;28.95;;;13.25;;
47555;SDS011;33291;46.222;26.460;2023-12-20T11:52:54;33.08;;;19.60;;
47555;SDS011;33291;46.222;26.460;2023-12-20T11:55:21;30.80;;;17.13;;
47555;SDS011;33291;46.222;26.460;2023-12-20T11:57:47;49.70;;;25.20;;
47555;SDS011;33291;46.222;26.460;2023-12-20T12:00:13;18.02;;;8.43;;
47555;SDS011;33291;46.222;26.460;2023-12-20T12:02:39;9.10;;;5.28;;
47555;SDS011;33291;46.222;26.460;2023-12-20T12:05:04;19.95;;;9.93;;
47555;SDS011;33291;46.222;26.460;2023-12-20T12:07:31;29.33;;;15.48;;
47555;SDS011;33291;46.222;26.460;2023-12-20T12:09:57;21.58;;;10.07;;
47555;SDS011;33291;46.222;26.460;2023-12-20T12:12:23;13.73;;;7.05;;
47555;SDS011;33291;46.222;26.460;2023-12-20T12:14:50;17.55;;;8.77;;
47555;SDS011;33291;46.222;26.460;2023-12-20T12:17:16;16.27;;;8.43;;
47555;SDS011;33291;46.222;26.460;2023-12-20T12:19:41;37.80;;;19.05;;
47555;SDS011;33291;46.222;26.460;2023-12-20T12:22:12;27.35;;;13.57;;
47555;SDS011;33291;46.222;26.460;2023-12-20T12:27:09;16.20;;;7.60;;
47555;SDS011;33291;46.222;26.460;2023-12-20T12:29:36;11.38;;;4.70;;
47555;SDS011;33291;46.222;26.460;2023-12-20T12:32:09;9.77;;;4.53;;
47555;SDS011;33291;46.222;26.460;2023-12-20T12:34:35;10.73;;;5.13;;
47555;SDS011;33291;46.222;26.460;2023-12-20T12:37:01;2.92;;;1.45;;
47555;SDS011;33291;46.222;26.460;2023-12-20T12:39:29;5.43;;;1.73;;
47555;SDS011;33291;46.222;26.460;2023-12-20T12:41:55;7.85;;;3.65;;
47555;SDS011;33291;46.222;26.460;2023-12-20T12:44:21;4.50;;;1.65;;
47555;SDS011;33291;46.222;26.460;2023-12-20T12:46:48;26.63;;;13.02;;
47555;SDS011;33291;46.222;26.460;2023-12-20T12:49:21;45.28;;;21.25;;
47555;SDS011;33291;46.222;26.460;2023-12-20T12:51:47;58.95;;;28.70;;
47555;SDS011;33291;46.222;26.460;2023-12-20T12:54:13;38.33;;;19.65;;
47555;SDS011;33291;46.222;26.460;2023-12-20T12:56:41;6.13;;;2.83;;
47555;SDS011;33291;46.222;26.460;2023-12-20T12:59:07;10.32;;;3.53;;
47555;SDS011;33291;46.222;26.460;2023-12-20T13:01:33;7.05;;;3.10;;
47555;SDS011;33291;46.222;26.460;2023-12-20T13:03:58;33.53;;;14.82;;
47555;SDS011;33291;46.222;26.460;2023-12-20T13:06:26;5.40;;;1.98;;
47555;SDS011;33291;46.222;26.460;2023-12-20T13:08:52;18.05;;;7.78;;
47555;SDS011;33291;46.222;26.460;2023-12-20T13:11:17;30.17;;;13.75;;
47555;SDS011;33291;46.222;26.460;2023-12-20T13:13:43;35.70;;;17.98;;
47555;SDS011;33291;46.222;26.460;2023-12-20T13:16:08;48.63;;;22.30;;
47555;SDS011;33291;46.222;26.460;2023-12-20T13:18:34;28.05;;;13.13;;
47555;SDS011;33291;46.222;26.460;2023-12-20T13:20:59;16.40;;;9.18;;
47555;SDS011;33291;46.222;26.460;2023-12-20T13:23:25;20.00;;;9.25;;
47555;SDS011;33291;46.222;26.460;2023-12-20T13:25:50;6.45;;;3.15;;
47555;SDS011;33291;46.222;26.460;2023-12-20T13:28:16;2.28;;;1.55;;
47555;SDS011;33291;46.222;26.460;2023-12-20T13:30:42;36.33;;;18.83;;
47555;SDS011;33291;46.222;26.460;2023-12-20T13:33:08;69.50;;;32.83;;
47555;SDS011;33291;46.222;26.460;2023-12-20T13:35:34;70.72;;;33.03;;
47555;SDS011;33291;46.222;26.460;2023-12-20T13:38:00;47.85;;;23.88;;
47555;SDS011;33291;46.222;26.460;2023-12-20T13:40:25;21.67;;;8.95;;
47555;SDS011;33291;46.222;26.460;2023-12-20T13:42:51;22.23;;;10.30;;
47555;SDS011;33291;46.222;26.460;2023-12-20T13:45:17;38.20;;;18.23;;
47555;SDS011;33291;46.222;26.460;2023-12-20T13:47:42;43.95;;;23.63;;
47555;SDS011;33291;46.222;26.460;2023-12-20T13:50:08;64.05;;;30.23;;
47555;SDS011;33291;46.222;26.460;2023-12-20T13:52:34;26.25;;;13.95;;
47555;SDS011;33291;46.222;26.460;2023-12-20T13:55:00;18.25;;;7.07;;
47555;SDS011;33291;46.222;26.460;2023-12-20T13:57:25;35.85;;;16.20;;
47555;SDS011;33291;46.222;26.460;2023-12-20T13:59:51;38.40;;;17.35;;
47555;SDS011;33291;46.222;26.460;2023-12-20T14:02:16;87.55;;;37.08;;
47555;SDS011;33291;46.222;26.460;2023-12-20T14:04:42;61.95;;;28.85;;
47555;SDS011;33291;46.222;26.460;2023-12-20T14:07:07;18.30;;;9.73;;
47555;SDS011;33291;46.222;26.460;2023-12-20T14:09:34;20.27;;;9.25;;
47555;SDS011;33291;46.222;26.460;2023-12-20T14:12:00;27.35;;;15.77;;
47555;SDS011;33291;46.222;26.460;2023-12-20T14:14:25;16.50;;;9.48;;
47555;SDS011;33291;46.222;26.460;2023-12-20T14:16:51;26.25;;;12.15;;
47555;SDS011;33291;46.222;26.460;2023-12-20T14:19:16;45.17;;;23.83;;
47555;SDS011;33291;46.222;26.460;2023-12-20T14:21:43;35.70;;;18.23;;
47555;SDS011;33291;46.222;26.460;2023-12-20T14:24:10;26.70;;;11.10;;
47555;SDS011;33291;46.222;26.460;2023-12-20T14:26:40;22.75;;;11.55;;